sensor_id;sensor_type;location;lat;lon;timestamp;pressure;altitude;pressure_sealevel;temperature;humidity
24762;BME280;12865;51.934;10.330;2022-10-16T00:02:31;98715.00;;;13.53;100.00
24762;BME280;12865;51.934;10.330;2022-10-16T00:05:17;98712.69;;;13.50;100.00
24762;BME280;12865;51.934;10.330;2022-10-16T00:08:03;98710.34;;;13.47;100.00
24762;BME280;12865;51.934;10.330;2022-10-16T00:10:48;98721.06;;;13.47;100.00
24762;BME280;12865;51.934;10.330;2022-10-16T00:13:35;98720.56;;;13.43;100.00
24762;BME280;12865;51.934;10.330;2022-10-16T00:16:22;98727.94;;;13.41;100.00
24762;BME280;12865;51.934;10.330;2022-10-16T00:19:09;98729.94;;;13.39;100.00
24762;BME280;12865;51.934;10.330;2022-10-16T00:21:56;98730.44;;;13.34;100.00
24762;BME280;12865;51.934;10.330;2022-10-16T00:24:41;98737.63;;;13.34;100.00
24762;BME280;12865;51.934;10.330;2022-10-16T00:27:27;98733.97;;;13.35;100.00
24762;BME280;12865;51.934;10.330;2022-10-16T00:30:13;98731.81;;;13.30;100.00
24762;BME280;12865;51.934;10.330;2022-10-16T00:32:59;98734.97;;;13.26;100.00
24762;BME280;12865;51.934;10.330;2022-10-16T00:35:44;98730.13;;;13.21;100.00
24762;BME280;12865;51.934;10.330;2022-10-16T00:38:31;98728.63;;;13.19;100.00
24762;BME280;12865;51.934;10.330;2022-10-16T00:41:17;98710.88;;;13.18;100.00
24762;BME280;12865;51.934;10.330;2022-10-16T00:44:40;98734.31;;;13.16;100.00
24762;BME280;12865;51.934;10.330;2022-10-16T00:47:22;98734.31;;;13.16;100.00
24762;BME280;12865;51.934;10.330;2022-10-16T00:50:27;98726.78;;;13.19;100.00
24762;BME280;12865;51.934;10.330;2022-10-16T00:53:14;98731.47;;;13.17;100.00
24762;BME280;12865;51.934;10.330;2022-10-16T00:56:00;98738.00;;;13.15;100.00
24762;BME280;12865;51.934;10.330;2022-10-16T00:58:46;98731.81;;;13.14;100.00
24762;BME280;12865;51.934;10.330;2022-10-16T01:01:32;98733.13;;;13.10;100.00
24762;BME280;12865;51.934;10.330;2022-10-16T01:04:18;98731.09;;;13.04;100.00
24762;BME280;12865;51.934;10.330;2022-10-16T01:10:55;98727.41;;;13.05;100.00
24762;BME280;12865;51.934;10.330;2022-10-16T01:13:46;98743.00;;;13.02;100.00
24762;BME280;12865;51.934;10.330;2022-10-16T01:16:39;98732.59;;;12.98;100.00
24762;BME280;12865;51.934;10.330;2022-10-16T01:26:37;98729.44;;;12.87;100.00
24762;BME280;12865;51.934;10.330;2022-10-16T01:35:54;98750.81;;;12.79;100.00
24762;BME280;12865;51.934;10.330;2022-10-16T01:38:43;98749.66;;;12.81;100.00
24762;BME280;12865;51.934;10.330;2022-10-16T01:41:34;98749.16;;;12.78;100.00
24762;BME280;12865;51.934;10.330;2022-10-16T01:44:26;98748.66;;;12.74;100.00
24762;BME280;12865;51.934;10.330;2022-10-16T01:47:15;98754.34;;;12.79;100.00
24762;BME280;12865;51.934;10.330;2022-10-16T01:50:04;98755.19;;;12.80;100.00
24762;BME280;12865;51.934;10.330;2022-10-16T01:52:52;98749.47;;;12.83;100.00
24762;BME280;12865;51.934;10.330;2022-10-16T01:55:42;98754.81;;;12.83;100.00
24762;BME280;12865;51.934;10.330;2022-10-16T01:58:33;98757.31;;;12.76;100.00
24762;BME280;12865;51.934;10.330;2022-10-16T02:01:22;98754.34;;;12.79;100.00
24762;BME280;12865;51.934;10.330;2022-10-16T02:04:29;98751.50;;;12.81;100.00
24762;BME280;12865;51.934;10.330;2022-10-16T02:07:17;98765.53;;;12.83;100.00
24762;BME280;12865;51.934;10.330;2022-10-16T02:10:03;98776.91;;;12.85;100.00
24762;BME280;12865;51.934;10.330;2022-10-16T02:13:05;98775.91;;;12.86;100.00
24762;BME280;12865;51.934;10.330;2022-10-16T02:15:51;98780.09;;;12.88;100.00
24762;BME280;12865;51.934;10.330;2022-10-16T02:18:38;98770.25;;;12.89;100.00
24762;BME280;12865;51.934;10.330;2022-10-16T02:21:30;98778.28;;;12.89;100.00
24762;BME280;12865;51.934;10.330;2022-10-16T02:24:27;98784.47;;;12.89;100.00
24762;BME280;12865;51.934;10.330;2022-10-16T02:30:51;98788.97;;;12.89;100.00
24762;BME280;12865;51.934;10.330;2022-10-16T02:33:42;98797.50;;;12.92;100.00
24762;BME280;12865;51.934;10.330;2022-10-16T02:36:29;98794.97;;;12.91;100.00
24762;BME280;12865;51.934;10.330;2022-10-16T02:39:16;98795.16;;;12.89;100.00
24762;BME280;12865;51.934;10.330;2022-10-16T02:42:02;98795.47;;;12.86;100.00
24762;BME280;12865;51.934;10.330;2022-10-16T02:44:48;98797.16;;;12.87;100.00
24762;BME280;12865;51.934;10.330;2022-10-16T02:47:33;98797.66;;;12.91;100.00
24762;BME280;12865;51.934;10.330;2022-10-16T02:50:19;98798.63;;;12.90;100.00
24762;BME280;12865;51.934;10.330;2022-10-16T02:53:05;98797.66;;;12.91;100.00
24762;BME280;12865;51.934;10.330;2022-10-16T02:55:50;98795.81;;;12.91;100.00
24762;BME280;12865;51.934;10.330;2022-10-16T02:58:36;98793.28;;;12.90;100.00
24762;BME280;12865;51.934;10.330;2022-10-16T03:01:22;98791.66;;;12.89;100.00
24762;BME280;12865;51.934;10.330;2022-10-16T03:04:08;98794.78;;;12.84;100.00
24762;BME280;12865;51.934;10.330;2022-10-16T03:06:54;98787.75;;;12.83;100.00
24762;BME280;12865;51.934;10.330;2022-10-16T03:09:39;98783.25;;;12.84;100.00
24762;BME280;12865;51.934;10.330;2022-10-16T03:12:26;98787.13;;;12.81;100.00
24762;BME280;12865;51.934;10.330;2022-10-16T03:15:12;98795.63;;;12.85;100.00
24762;BME280;12865;51.934;10.330;2022-10-16T03:17:58;98784.78;;;12.86;100.00
24762;BME280;12865;51.934;10.330;2022-10-16T03:20:44;98788.13;;;12.88;100.00
24762;BME280;12865;51.934;10.330;2022-10-16T03:23:30;98786.47;;;12.87;100.00
24762;BME280;12865;51.934;10.330;2022-10-16T03:26:15;98774.75;;;12.80;100.00
24762;BME280;12865;51.934;10.330;2022-10-16T03:29:02;98780.56;;;12.76;100.00
24762;BME280;12865;51.934;10.330;2022-10-16T03:31:48;98780.91;;;12.73;100.00
24762;BME280;12865;51.934;10.330;2022-10-16T03:34:34;98773.88;;;12.72;100.00
24762;BME280;12865;51.934;10.330;2022-10-16T03:37:20;98783.91;;;12.70;100.00
24762;BME280;12865;51.934;10.330;2022-10-16T03:40:06;98779.06;;;12.65;100.00
24762;BME280;12865;51.934;10.330;2022-10-16T03:42:52;98792.09;;;12.60;100.00
24762;BME280;12865;51.934;10.330;2022-10-16T03:45:40;98799.56;;;12.56;100.00
24762;BME280;12865;51.934;10.330;2022-10-16T03:48:26;98796.91;;;12.56;100.00
24762;BME280;12865;51.934;10.330;2022-10-16T03:51:12;98791.91;;;12.53;100.00
24762;BME280;12865;51.934;10.330;2022-10-16T03:53:57;98792.84;;;12.44;100.00
24762;BME280;12865;51.934;10.330;2022-10-16T03:56:43;98792.19;;;12.42;100.00
24762;BME280;12865;51.934;10.330;2022-10-16T03:59:29;98797.53;;;12.42;100.00
24762;BME280;12865;51.934;10.330;2022-10-16T04:02:14;98797.03;;;12.39;100.00
24762;BME280;12865;51.934;10.330;2022-10-16T04:05:00;98814.22;;;12.36;100.00
24762;BME280;12865;51.934;10.330;2022-10-16T04:07:46;98818.56;;;12.37;100.00
24762;BME280;12865;51.934;10.330;2022-10-16T04:10:32;98818.56;;;12.37;100.00
24762;BME280;12865;51.934;10.330;2022-10-16T04:13:17;98820.00;;;12.24;100.00
24762;BME280;12865;51.934;10.330;2022-10-16T04:16:03;98812.09;;;12.14;100.00
24762;BME280;12865;51.934;10.330;2022-10-16T04:18:49;98810.06;;;12.08;100.00
24762;BME280;12865;51.934;10.330;2022-10-16T04:21:34;98812.06;;;12.06;100.00
24762;BME280;12865;51.934;10.330;2022-10-16T04:24:20;98818.44;;;12.05;100.00
24762;BME280;12865;51.934;10.330;2022-10-16T04:27:06;98812.53;;;12.01;100.00
24762;BME280;12865;51.934;10.330;2022-10-16T04:29:51;98815.16;;;11.93;100.00
24762;BME280;12865;51.934;10.330;2022-10-16T04:32:37;98814.31;;;11.93;100.00
24762;BME280;12865;51.934;10.330;2022-10-16T04:35:23;98816.78;;;11.86;100.00
24762;BME280;12865;51.934;10.330;2022-10-16T04:38:08;98824.44;;;11.81;100.00
24762;BME280;12865;51.934;10.330;2022-10-16T04:40:55;98829.84;;;11.71;100.00
24762;BME280;12865;51.934;10.330;2022-10-16T04:43:40;98830.47;;;11.65;100.00
24762;BME280;12865;51.934;10.330;2022-10-16T04:46:26;98827.50;;;11.68;100.00
24762;BME280;12865;51.934;10.330;2022-10-16T04:49:12;98815.38;;;11.74;100.00
24762;BME280;12865;51.934;10.330;2022-10-16T04:51:57;98814.41;;;11.75;100.00
24762;BME280;12865;51.934;10.330;2022-10-16T04:54:43;98818.28;;;11.80;100.00
24762;BME280;12865;51.934;10.330;2022-10-16T04:57:30;98810.31;;;11.71;100.00
24762;BME280;12865;51.934;10.330;2022-10-16T05:00:16;98821.47;;;11.66;100.00
24762;BME280;12865;51.934;10.330;2022-10-16T05:03:02;98829.19;;;11.69;100.00
24762;BME280;12865;51.934;10.330;2022-10-16T05:05:51;98846.97;;;11.78;100.00
24762;BME280;12865;51.934;10.330;2022-10-16T05:08:37;98831.31;;;11.84;100.00
24762;BME280;12865;51.934;10.330;2022-10-16T05:11:22;98822.53;;;11.91;100.00
24762;BME280;12865;51.934;10.330;2022-10-16T05:14:08;98828.22;;;11.96;100.00
24762;BME280;12865;51.934;10.330;2022-10-16T05:16:54;98821.03;;;11.97;100.00
24762;BME280;12865;51.934;10.330;2022-10-16T05:19:39;98825.13;;;12.09;100.00
24762;BME280;12865;51.934;10.330;2022-10-16T05:22:25;98829.03;;;12.65;100.00
24762;BME280;12865;51.934;10.330;2022-10-16T05:25:11;98825.31;;;12.57;100.00
24762;BME280;12865;51.934;10.330;2022-10-16T05:27:56;98812.00;;;12.74;100.00
24762;BME280;12865;51.934;10.330;2022-10-16T05:30:42;98803.16;;;12.81;100.00
24762;BME280;12865;51.934;10.330;2022-10-16T05:33:28;98795.97;;;12.90;100.00
24762;BME280;12865;51.934;10.330;2022-10-16T05:36:13;98827.13;;;13.07;100.00
24762;BME280;12865;51.934;10.330;2022-10-16T05:38:59;98838.69;;;13.32;100.00
24762;BME280;12865;51.934;10.330;2022-10-16T05:41:45;98853.78;;;13.33;100.00
24762;BME280;12865;51.934;10.330;2022-10-16T05:44:31;98847.25;;;13.35;100.00
24762;BME280;12865;51.934;10.330;2022-10-16T05:47:16;98842.91;;;13.43;100.00
24762;BME280;12865;51.934;10.330;2022-10-16T05:50:02;98842.91;;;13.43;100.00
24762;BME280;12865;51.934;10.330;2022-10-16T05:52:49;98859.31;;;13.48;100.00
24762;BME280;12865;51.934;10.330;2022-10-16T05:55:35;98860.63;;;13.68;100.00
24762;BME280;12865;51.934;10.330;2022-10-16T05:58:21;98859.78;;;13.67;100.00
24762;BME280;12865;51.934;10.330;2022-10-16T06:01:10;98876.88;;;13.83;100.00
24762;BME280;12865;51.934;10.330;2022-10-16T06:03:56;98875.34;;;13.88;100.00
24762;BME280;12865;51.934;10.330;2022-10-16T06:06:43;98890.28;;;13.83;100.00
24762;BME280;12865;51.934;10.330;2022-10-16T06:09:28;98896.47;;;13.91;100.00
24762;BME280;12865;51.934;10.330;2022-10-16T06:12:14;98909.34;;;13.96;100.00
24762;BME280;12865;51.934;10.330;2022-10-16T06:15:00;98892.44;;;14.03;100.00
24762;BME280;12865;51.934;10.330;2022-10-16T06:17:46;98896.63;;;13.98;100.00
24762;BME280;12865;51.934;10.330;2022-10-16T06:20:31;98891.09;;;13.99;100.00
24762;BME280;12865;51.934;10.330;2022-10-16T06:23:17;98895.47;;;14.00;100.00
24762;BME280;12865;51.934;10.330;2022-10-16T06:26:11;98915.03;;;14.09;100.00
24762;BME280;12865;51.934;10.330;2022-10-16T06:28:59;98919.06;;;14.05;100.00
24762;BME280;12865;51.934;10.330;2022-10-16T06:31:45;98924.44;;;14.05;100.00
24762;BME280;12865;51.934;10.330;2022-10-16T06:34:30;98917.59;;;13.94;100.00
24762;BME280;12865;51.934;10.330;2022-10-16T06:37:16;98927.94;;;13.89;100.00
24762;BME280;12865;51.934;10.330;2022-10-16T06:40:02;98933.31;;;13.81;100.00
24762;BME280;12865;51.934;10.330;2022-10-16T06:42:49;98926.63;;;13.77;100.00
24762;BME280;12865;51.934;10.330;2022-10-16T06:45:37;98927.94;;;13.81;100.00
24762;BME280;12865;51.934;10.330;2022-10-16T06:48:23;98930.81;;;13.80;100.00
24762;BME280;12865;51.934;10.330;2022-10-16T06:51:11;98935.81;;;13.91;100.00
24762;BME280;12865;51.934;10.330;2022-10-16T06:53:57;98931.13;;;13.85;100.00
24762;BME280;12865;51.934;10.330;2022-10-16T06:56:43;98935.50;;;13.86;100.00
24762;BME280;12865;51.934;10.330;2022-10-16T06:59:29;98937.00;;;13.88;100.00
24762;BME280;12865;51.934;10.330;2022-10-16T07:02:14;98960.78;;;13.91;100.00
24762;BME280;12865;51.934;10.330;2022-10-16T07:05:00;98967.47;;;13.95;100.00
24762;BME280;12865;51.934;10.330;2022-10-16T07:07:46;98970.69;;;13.99;100.00
24762;BME280;12865;51.934;10.330;2022-10-16T07:10:33;98977.38;;;14.03;100.00
24762;BME280;12865;51.934;10.330;2022-10-16T07:13:19;98985.09;;;14.06;100.00
24762;BME280;12865;51.934;10.330;2022-10-16T07:16:10;98990.09;;;14.17;100.00
24762;BME280;12865;51.934;10.330;2022-10-16T07:19:00;98997.13;;;14.26;100.00
24762;BME280;12865;51.934;10.330;2022-10-16T07:21:46;99013.72;;;14.30;100.00
24762;BME280;12865;51.934;10.330;2022-10-16T07:24:32;99001.81;;;14.32;100.00
24762;BME280;12865;51.934;10.330;2022-10-16T07:27:18;98994.13;;;14.29;100.00
24762;BME280;12865;51.934;10.330;2022-10-16T07:30:04;98999.31;;;14.31;100.00
24762;BME280;12865;51.934;10.330;2022-10-16T07:32:50;98991.97;;;14.49;100.00
24762;BME280;12865;51.934;10.330;2022-10-16T07:35:36;98996.25;;;14.74;100.00
24762;BME280;12865;51.934;10.330;2022-10-16T07:38:22;98999.91;;;14.81;100.00
24762;BME280;12865;51.934;10.330;2022-10-16T07:41:17;99010.75;;;15.04;100.00
24762;BME280;12865;51.934;10.330;2022-10-16T07:44:03;99007.53;;;15.17;100.00
24762;BME280;12865;51.934;10.330;2022-10-16T07:46:49;99021.91;;;15.32;100.00
24762;BME280;12865;51.934;10.330;2022-10-16T07:49:35;99027.28;;;15.32;100.00
24762;BME280;12865;51.934;10.330;2022-10-16T07:52:21;99003.91;;;15.41;100.00
24762;BME280;12865;51.934;10.330;2022-10-16T07:55:07;98998.94;;;15.60;100.00
24762;BME280;12865;51.934;10.330;2022-10-16T07:57:53;99001.78;;;15.90;100.00
24762;BME280;12865;51.934;10.330;2022-10-16T08:00:38;99014.78;;;16.01;100.00
24762;BME280;12865;51.934;10.330;2022-10-16T08:03:25;99027.75;;;16.20;100.00
24762;BME280;12865;51.934;10.330;2022-10-16T08:06:10;99031.53;;;16.11;100.00
24762;BME280;12865;51.934;10.330;2022-10-16T08:08:56;99039.00;;;16.01;100.00
24762;BME280;12865;51.934;10.330;2022-10-16T08:11:42;99034.38;;;15.87;100.00
24762;BME280;12865;51.934;10.330;2022-10-16T08:14:28;99040.19;;;15.98;100.00
24762;BME280;12865;51.934;10.330;2022-10-16T08:17:14;99036.06;;;15.88;100.00
24762;BME280;12865;51.934;10.330;2022-10-16T08:20:01;99045.63;;;15.90;100.00
24762;BME280;12865;51.934;10.330;2022-10-16T08:22:47;99055.84;;;15.95;100.00
24762;BME280;12865;51.934;10.330;2022-10-16T08:25:36;99052.28;;;16.02;100.00
24762;BME280;12865;51.934;10.330;2022-10-16T08:28:23;99053.63;;;16.21;100.00
24762;BME280;12865;51.934;10.330;2022-10-16T08:31:11;99056.16;;;16.45;100.00
24762;BME280;12865;51.934;10.330;2022-10-16T08:33:57;99063.00;;;16.71;100.00
24762;BME280;12865;51.934;10.330;2022-10-16T08:36:43;99063.00;;;16.71;100.00
24762;BME280;12865;51.934;10.330;2022-10-16T08:39:29;99068.66;;;16.76;100.00
24762;BME280;12865;51.934;10.330;2022-10-16T08:45:35;99069.94;;;17.03;100.00
24762;BME280;12865;51.934;10.330;2022-10-16T08:48:51;99070.31;;;17.14;100.00
24762;BME280;12865;51.934;10.330;2022-10-16T08:51:37;99069.91;;;17.47;98.88
24762;BME280;12865;51.934;10.330;2022-10-16T08:54:37;99084.13;;;17.55;99.29
24762;BME280;12865;51.934;10.330;2022-10-16T08:57:26;99075.13;;;17.63;96.72
24762;BME280;12865;51.934;10.330;2022-10-16T09:00:17;99074.13;;;17.64;97.64
24762;BME280;12865;51.934;10.330;2022-10-16T09:06:45;99103.69;;;17.72;95.10
24762;BME280;12865;51.934;10.330;2022-10-16T09:09:50;99104.59;;;17.50;93.97
24762;BME280;12865;51.934;10.330;2022-10-16T09:16:02;99102.81;;;17.27;98.63
24762;BME280;12865;51.934;10.330;2022-10-16T09:19:20;99115.00;;;17.09;98.38
24762;BME280;12865;51.934;10.330;2022-10-16T09:22:16;99116.34;;;16.90;100.00
24762;BME280;12865;51.934;10.330;2022-10-16T09:25:12;99125.06;;;16.92;100.00
24762;BME280;12865;51.934;10.330;2022-10-16T09:27:58;99123.78;;;16.88;100.00
24762;BME280;12865;51.934;10.330;2022-10-16T09:30:44;99106.88;;;16.94;100.00
24762;BME280;12865;51.934;10.330;2022-10-16T09:33:36;99123.50;;;16.98;100.00
24762;BME280;12865;51.934;10.330;2022-10-16T09:36:25;99122.16;;;17.16;100.00
24762;BME280;12865;51.934;10.330;2022-10-16T09:39:12;99117.16;;;16.91;100.00
24762;BME280;12865;51.934;10.330;2022-10-16T09:41:58;99130.53;;;16.84;100.00
24762;BME280;12865;51.934;10.330;2022-10-16T09:44:50;99123.28;;;16.84;100.00
24762;BME280;12865;51.934;10.330;2022-10-16T09:47:39;99134.72;;;16.86;100.00
24762;BME280;12865;51.934;10.330;2022-10-16T09:50:28;99135.81;;;16.77;100.00
24762;BME280;12865;51.934;10.330;2022-10-16T09:53:15;99136.69;;;16.93;100.00
24762;BME280;12865;51.934;10.330;2022-10-16T09:56:03;99151.06;;;16.85;99.56
24762;BME280;12865;51.934;10.330;2022-10-16T09:58:53;99151.28;;;16.98;100.00
24762;BME280;12865;51.934;10.330;2022-10-16T10:01:42;99157.31;;;17.00;99.42
24762;BME280;12865;51.934;10.330;2022-10-16T10:04:38;99153.47;;;16.80;100.00
24762;BME280;12865;51.934;10.330;2022-10-16T10:07:39;99146.41;;;16.79;100.00
24762;BME280;12865;51.934;10.330;2022-10-16T10:10:30;99156.66;;;16.98;99.83
24762;BME280;12865;51.934;10.330;2022-10-16T10:13:19;99161.09;;;16.91;99.94
24762;BME280;12865;51.934;10.330;2022-10-16T10:16:05;99164.56;;;17.00;99.90
24762;BME280;12865;51.934;10.330;2022-10-16T10:18:58;99157.59;;;17.05;98.94
24762;BME280;12865;51.934;10.330;2022-10-16T10:21:45;99167.66;;;17.26;98.29
24762;BME280;12865;51.934;10.330;2022-10-16T10:24:31;99163.59;;;17.59;96.16
24762;BME280;12865;51.934;10.330;2022-10-16T10:27:18;99159.56;;;17.78;93.97
24762;BME280;12865;51.934;10.330;2022-10-16T10:30:24;99169.13;;;17.81;90.30
24762;BME280;12865;51.934;10.330;2022-10-16T10:39:13;99166.56;;;18.44;87.51
24762;BME280;12865;51.934;10.330;2022-10-16T10:48:05;99178.59;;;18.57;81.75
24762;BME280;12865;51.934;10.330;2022-10-16T10:51:05;99175.78;;;18.50;82.58
24762;BME280;12865;51.934;10.330;2022-10-16T10:57:02;99187.38;;;19.08;78.93
24762;BME280;12865;51.934;10.330;2022-10-16T11:06:00;99204.47;;;19.15;79.70
24762;BME280;12865;51.934;10.330;2022-10-16T11:08:57;99200.97;;;19.21;76.24
24762;BME280;12865;51.934;10.330;2022-10-16T11:11:56;99194.00;;;19.05;75.99
24762;BME280;12865;51.934;10.330;2022-10-16T11:17:40;99190.06;;;18.65;77.76
24762;BME280;12865;51.934;10.330;2022-10-16T11:20:40;99187.38;;;18.87;78.21
24762;BME280;12865;51.934;10.330;2022-10-16T11:23:42;99187.50;;;19.00;75.70
24762;BME280;12865;51.934;10.330;2022-10-16T11:26:35;99190.34;;;19.41;74.89
24762;BME280;12865;51.934;10.330;2022-10-16T11:29:29;99198.59;;;19.33;73.00
24762;BME280;12865;51.934;10.330;2022-10-16T11:32:25;99195.50;;;19.64;73.04
24762;BME280;12865;51.934;10.330;2022-10-16T11:35:25;99190.06;;;19.57;70.94
24762;BME280;12865;51.934;10.330;2022-10-16T11:41:18;99202.06;;;19.76;70.13
24762;BME280;12865;51.934;10.330;2022-10-16T11:44:20;99201.44;;;19.80;69.42
24762;BME280;12865;51.934;10.330;2022-10-16T11:50:22;99200.00;;;19.84;69.48
24762;BME280;12865;51.934;10.330;2022-10-16T11:53:21;99201.22;;;19.75;69.14
24762;BME280;12865;51.934;10.330;2022-10-16T11:56:12;99207.72;;;19.87;68.10
24762;BME280;12865;51.934;10.330;2022-10-16T11:59:02;99212.00;;;19.69;68.79
24762;BME280;12865;51.934;10.330;2022-10-16T12:02:38;99208.78;;;19.58;66.77
24762;BME280;12865;51.934;10.330;2022-10-16T12:05:24;99210.47;;;19.59;64.69
24762;BME280;12865;51.934;10.330;2022-10-16T12:08:13;99212.66;;;19.77;65.10
24762;BME280;12865;51.934;10.330;2022-10-16T12:17:03;99214.47;;;19.42;65.80
24762;BME280;12865;51.934;10.330;2022-10-16T12:23:04;99212.19;;;19.18;66.65
24762;BME280;12865;51.934;10.330;2022-10-16T12:25:55;99217.94;;;19.08;65.41
24762;BME280;12865;51.934;10.330;2022-10-16T12:28:42;99218.97;;;18.86;65.59
24762;BME280;12865;51.934;10.330;2022-10-16T12:31:37;99222.63;;;19.00;67.13
24762;BME280;12865;51.934;10.330;2022-10-16T12:34:38;99244.41;;;18.92;69.32
24762;BME280;12865;51.934;10.330;2022-10-16T12:37:36;99244.66;;;18.97;69.74
24762;BME280;12865;51.934;10.330;2022-10-16T12:40:27;99235.22;;;18.93;69.35
24762;BME280;12865;51.934;10.330;2022-10-16T12:51:58;99259.78;;;18.91;68.44
24762;BME280;12865;51.934;10.330;2022-10-16T12:54:44;99254.44;;;18.98;69.79
24762;BME280;12865;51.934;10.330;2022-10-16T12:58:10;99263.94;;;19.15;69.79
24762;BME280;12865;51.934;10.330;2022-10-16T13:01:29;99258.97;;;19.40;66.98
24762;BME280;12865;51.934;10.330;2022-10-16T13:04:29;99259.81;;;19.40;67.15
24762;BME280;12865;51.934;10.330;2022-10-16T13:07:38;99264.06;;;19.07;66.60
24762;BME280;12865;51.934;10.330;2022-10-16T13:10:38;99263.88;;;19.08;67.52
24762;BME280;12865;51.934;10.330;2022-10-16T13:19:35;99262.94;;;19.65;67.35
24762;BME280;12865;51.934;10.330;2022-10-16T13:22:42;99273.94;;;19.64;66.09
24762;BME280;12865;51.934;10.330;2022-10-16T13:29:13;99281.59;;;19.81;65.30
24762;BME280;12865;51.934;10.330;2022-10-16T13:32:06;99284.28;;;19.81;66.43
24762;BME280;12865;51.934;10.330;2022-10-16T13:34:53;99294.03;;;19.76;65.62
24762;BME280;12865;51.934;10.330;2022-10-16T13:37:39;99291.41;;;19.40;64.79
24762;BME280;12865;51.934;10.330;2022-10-16T13:40:25;99294.69;;;19.35;65.89
24762;BME280;12865;51.934;10.330;2022-10-16T13:43:11;99294.03;;;19.48;65.17
24762;BME280;12865;51.934;10.330;2022-10-16T13:45:59;99297.91;;;19.45;65.46
24762;BME280;12865;51.934;10.330;2022-10-16T13:49:02;99298.84;;;19.52;66.86
24762;BME280;12865;51.934;10.330;2022-10-16T13:52:00;99301.41;;;19.60;66.36
24762;BME280;12865;51.934;10.330;2022-10-16T13:54:46;99294.31;;;19.38;65.64
24762;BME280;12865;51.934;10.330;2022-10-16T13:57:32;99294.50;;;19.15;67.29
24762;BME280;12865;51.934;10.330;2022-10-16T14:00:23;99305.66;;;19.27;68.58
24762;BME280;12865;51.934;10.330;2022-10-16T14:03:14;99311.38;;;19.39;68.53
24762;BME280;12865;51.934;10.330;2022-10-16T14:06:03;99309.75;;;19.44;68.31
24762;BME280;12865;51.934;10.330;2022-10-16T14:09:23;99313.00;;;19.33;68.96
24762;BME280;12865;51.934;10.330;2022-10-16T14:12:12;99310.16;;;19.20;67.00
24762;BME280;12865;51.934;10.330;2022-10-16T14:14:58;99314.38;;;19.08;68.11
24762;BME280;12865;51.934;10.330;2022-10-16T14:17:49;99311.06;;;19.06;68.15
24762;BME280;12865;51.934;10.330;2022-10-16T14:20:35;99305.78;;;19.19;68.01
24762;BME280;12865;51.934;10.330;2022-10-16T14:23:38;99303.31;;;19.03;69.02
24762;BME280;12865;51.934;10.330;2022-10-16T14:26:27;99308.72;;;19.03;69.15
24762;BME280;12865;51.934;10.330;2022-10-16T14:29:15;99311.44;;;19.03;69.61
24762;BME280;12865;51.934;10.330;2022-10-16T14:32:05;99314.56;;;19.06;68.34
24762;BME280;12865;51.934;10.330;2022-10-16T14:34:54;99317.50;;;19.05;70.52
24762;BME280;12865;51.934;10.330;2022-10-16T14:37:39;99314.56;;;18.85;69.85
24762;BME280;12865;51.934;10.330;2022-10-16T14:40:28;99318.44;;;18.97;68.84
24762;BME280;12865;51.934;10.330;2022-10-16T14:43:14;99317.28;;;19.06;68.92
24762;BME280;12865;51.934;10.330;2022-10-16T14:46:16;99324.59;;;18.91;70.39
24762;BME280;12865;51.934;10.330;2022-10-16T14:51:54;99331.75;;;18.99;71.35
24762;BME280;12865;51.934;10.330;2022-10-16T14:54:40;99325.88;;;18.95;71.09
24762;BME280;12865;51.934;10.330;2022-10-16T14:57:27;99327.81;;;19.01;71.28
24762;BME280;12865;51.934;10.330;2022-10-16T15:00:21;99329.63;;;18.94;70.62
24762;BME280;12865;51.934;10.330;2022-10-16T15:03:08;99338.00;;;18.99;71.43
24762;BME280;12865;51.934;10.330;2022-10-16T15:05:54;99338.31;;;18.90;71.89
24762;BME280;12865;51.934;10.330;2022-10-16T15:08:40;99343.88;;;18.88;71.94
24762;BME280;12865;51.934;10.330;2022-10-16T15:11:26;99352.94;;;18.80;71.76
24762;BME280;12865;51.934;10.330;2022-10-16T15:14:12;99350.25;;;18.80;70.27
24762;BME280;12865;51.934;10.330;2022-10-16T15:16:59;99344.94;;;18.72;71.15
24762;BME280;12865;51.934;10.330;2022-10-16T15:19:45;99350.00;;;18.61;72.25
24762;BME280;12865;51.934;10.330;2022-10-16T15:22:31;99351.28;;;18.50;73.05
24762;BME280;12865;51.934;10.330;2022-10-16T15:28:18;99351.75;;;18.39;74.53
24762;BME280;12865;51.934;10.330;2022-10-16T15:31:04;99354.44;;;18.39;75.12
24762;BME280;12865;51.934;10.330;2022-10-16T15:33:52;99346.81;;;18.28;75.80
24762;BME280;12865;51.934;10.330;2022-10-16T15:36:46;99340.19;;;18.16;77.02
24762;BME280;12865;51.934;10.330;2022-10-16T15:39:32;99338.31;;;18.01;77.12
24762;BME280;12865;51.934;10.330;2022-10-16T15:42:18;99348.38;;;17.93;77.82
24762;BME280;12865;51.934;10.330;2022-10-16T15:45:04;99350.47;;;17.83;78.62
24762;BME280;12865;51.934;10.330;2022-10-16T15:47:51;99351.78;;;17.72;80.06
24762;BME280;12865;51.934;10.330;2022-10-16T15:50:38;99357.56;;;17.61;81.05
24762;BME280;12865;51.934;10.330;2022-10-16T15:53:24;99362.88;;;17.46;82.46
24762;BME280;12865;51.934;10.330;2022-10-16T15:56:10;99352.25;;;17.30;83.91
24762;BME280;12865;51.934;10.330;2022-10-16T15:58:56;99367.38;;;17.08;85.17
24762;BME280;12865;51.934;10.330;2022-10-16T16:01:43;99360.25;;;16.84;86.54
24762;BME280;12865;51.934;10.330;2022-10-16T16:04:29;99365.53;;;16.70;87.82
24762;BME280;12865;51.934;10.330;2022-10-16T16:07:15;99366.75;;;16.59;88.68
24762;BME280;12865;51.934;10.330;2022-10-16T16:10:02;99371.31;;;16.50;89.95
24762;BME280;12865;51.934;10.330;2022-10-16T16:12:49;99379.78;;;16.39;90.15